Time;durP1;ratioP1;P1;durP2;ratioP2;P2;SDS_P1;SDS_P2;PMS_P1;PMS_P2;Temp;Humidity;BMP_temperature;BMP_pressure;BME280_temperature;BME280_humidity;BME280_pressure;Samples;Min_cycle;Max_cycle;Signal;HPM_P1;HPM_P2
2022/05/20 00:02:34;;;;;;;13.10;5.53;;;;;;;;;;6244040;28;20481;-84
2022/05/20 00:05:35;;;;;;;13.70;7.10;;;;;;;;;;6229829;28;20565;-84
2022/05/20 00:08:36;;;;;;;14.75;6.60;;;;;;;;;;6243687;28;20025;-84
2022/05/20 00:11:36;;;;;;;16.33;6.95;;;;;;;;;;6228621;28;20049;-84
2022/05/20 00:14:36;;;;;;;17.58;6.82;;;;;;;;;;6228721;28;20033;-85
2022/05/20 00:17:37;;;;;;;11.23;5.18;;;;;;;;;;6228225;28;20517;-85
2022/05/20 00:20:37;;;;;;;12.00;5.68;;;;;;;;;;6227141;28;20366;-84
2022/05/20 00:23:37;;;;;;;12.65;6.35;;;;;;;;;;6245092;28;20049;-84
2022/05/20 00:26:37;;;;;;;11.35;4.85;;;;;;;;;;6230153;28;20028;-84
2022/05/20 00:29:38;;;;;;;14.20;5.30;;;;;;;;;;6228777;28;20014;-84
2022/05/20 00:32:38;;;;;;;11.18;5.35;;;;;;;;;;6230056;28;20420;-84
2022/05/20 00:35:38;;;;;;;13.38;6.50;;;;;;;;;;6224608;28;20111;-84
2022/05/20 00:38:39;;;;;;;13.35;6.10;;;;;;;;;;6228387;28;20052;-84
2022/05/20 00:41:39;;;;;;;21.92;6.82;;;;;;;;;;6229751;28;20022;-84
2022/05/20 00:44:39;;;;;;;19.63;8.10;;;;;;;;;;6231014;28;20022;-84
2022/05/20 00:47:41;;;;;;;19.67;8.30;;;;;;;;;;6229897;28;20022;-84
2022/05/20 00:50:46;;;;;;;15.30;7.13;;;;;;;;;;6241087;28;20037;-84
2022/05/20 00:53:56;;;;;;;12.38;7.38;;;;;;;;;;6231168;28;20021;-84
2022/05/20 00:56:59;;;;;;;15.70;5.97;;;;;;;;;;6225215;28;20551;-84
2022/05/20 01:00:02;;;;;;;10.93;5.55;;;;;;;;;;6227698;28;20432;-84
2022/05/20 01:03:03;;;;;;;11.82;6.38;;;;;;;;;;6225719;28;20022;-85
2022/05/20 01:06:04;;;;;;;13.75;7.18;;;;;;;;;;6227053;28;20088;-85
2022/05/20 01:09:05;;;;;;;15.85;7.45;;;;;;;;;;6234418;28;20022;-84
2022/05/20 01:12:05;;;;;;;11.55;5.13;;;;;;;;;;6225797;28;20014;-84
2022/05/20 01:15:07;;;;;;;8.95;5.25;;;;;;;;;;6227129;28;20026;-84
2022/05/20 01:18:08;;;;;;;15.57;6.68;;;;;;;;;;6226957;28;20057;-84
2022/05/20 01:21:08;;;;;;;11.50;6.25;;;;;;;;;;6225005;28;20025;-84
2022/05/20 01:24:09;;;;;;;11.70;5.93;;;;;;;;;;6225486;28;20446;-84
2022/05/20 01:27:09;;;;;;;18.30;5.27;;;;;;;;;;6224029;28;20014;-84
2022/05/20 01:30:11;;;;;;;11.52;6.18;;;;;;;;;;6225750;28;20261;-84
2022/05/20 01:33:17;;;;;;;11.57;6.25;;;;;;;;;;6225054;28;20030;-84
2022/05/20 01:36:22;;;;;;;12.70;5.75;;;;;;;;;;6224340;28;20022;-85
2022/05/20 01:39:22;;;;;;;14.55;5.43;;;;;;;;;;6224994;28;20079;-84
2022/05/20 01:42:43;;;;;;;13.50;5.43;;;;;;;;;;6225473;28;20021;-84
2022/05/20 01:45:47;;;;;;;9.50;5.35;;;;;;;;;;6221017;28;20371;-84
2022/05/20 01:49:06;;;;;;;16.50;5.50;;;;;;;;;;6224103;28;20480;-84
2022/05/20 01:52:18;;;;;;;14.65;6.25;;;;;;;;;;6233542;28;20482;-84
2022/05/20 01:55:25;;;;;;;9.55;4.78;;;;;;;;;;6237153;28;20549;-84
2022/05/20 01:58:27;;;;;;;14.93;5.72;;;;;;;;;;6241810;28;20053;-84
2022/05/20 02:01:31;;;;;;;14.38;6.80;;;;;;;;;;6222833;28;20464;-85
2022/05/20 02:04:33;;;;;;;11.68;5.65;;;;;;;;;;6222942;28;20026;-84
2022/05/20 02:07:33;;;;;;;;;;;;;;;;;;6224730;28;20025;-84
2022/05/20 02:10:37;;;;;;;9.07;5.72;;;;;;;;;;6239370;28;19909;-85
2022/05/20 02:13:39;;;;;;;11.20;5.97;;;;;;;;;;6224178;28;20079;-84
2022/05/20 02:16:39;;;;;;;;;;;;;;;;;;6254792;28;20042;-84
2022/05/20 02:19:47;;;;;;;10.73;5.22;;;;;;;;;;6239170;28;19979;-84
2022/05/20 02:22:51;;;;;;;11.60;5.35;;;;;;;;;;6237877;28;20014;-84
2022/05/20 02:25:54;;;;;;;13.75;6.13;;;;;;;;;;6222834;28;20033;-84
2022/05/20 02:29:02;;;;;;;12.52;5.40;;;;;;;;;;6223727;28;20022;-84
2022/05/20 02:32:08;;;;;;;12.68;6.60;;;;;;;;;;6220521;28;20120;-84
2022/05/20 02:35:08;;;;;;;14.52;6.20;;;;;;;;;;6221930;28;20073;-84
2022/05/20 02:38:10;;;;;;;11.55;6.68;;;;;;;;;;6226547;28;20026;-84
2022/05/20 02:41:11;;;;;;;16.33;5.75;;;;;;;;;;6223939;28;20825;-84
2022/05/20 02:44:11;;;;;;;11.80;5.63;;;;;;;;;;6222902;28;20021;-84
2022/05/20 02:47:12;;;;;;;16.65;5.80;;;;;;;;;;6222310;28;20524;-84
2022/05/20 02:50:12;;;;;;;10.98;5.22;;;;;;;;;;6223955;28;20014;-84
2022/05/20 02:53:12;;;;;;;14.80;6.05;;;;;;;;;;6226981;28;20103;-85
2022/05/20 02:56:13;;;;;;;12.25;6.22;;;;;;;;;;6221878;28;20036;-84
2022/05/20 03:05:51;;;;;;;11.68;5.70;;;;;;;;;;6224149;28;20030;-84
2022/05/20 03:08:52;;;;;;;16.95;5.50;;;;;;;;;;6218998;28;20028;-84
2022/05/20 03:11:52;;;;;;;10.15;4.72;;;;;;;;;;6222446;28;20076;-84
2022/05/20 03:14:53;;;;;;;13.05;5.95;;;;;;;;;;6224086;28;20108;-84
2022/05/20 03:17:53;;;;;;;12.88;6.57;;;;;;;;;;6223668;28;20061;-84
2022/05/20 03:20:53;;;;;;;13.50;5.68;;;;;;;;;;6225333;28;20477;-84
2022/05/20 03:23:53;;;;;;;16.02;6.53;;;;;;;;;;6222263;28;20022;-83
2022/05/20 03:26:53;;;;;;;11.57;6.00;;;;;;;;;;6223598;28;20033;-84
2022/05/20 03:29:54;;;;;;;11.30;4.50;;;;;;;;;;6226848;28;20038;-84
2022/05/20 03:32:54;;;;;;;11.63;5.43;;;;;;;;;;6226570;28;20022;-84
2022/05/20 03:35:54;;;;;;;12.55;6.20;;;;;;;;;;6223758;28;20253;-84
2022/05/20 03:38:55;;;;;;;11.30;4.70;;;;;;;;;;6228636;28;20117;-84
2022/05/20 03:41:56;;;;;;;10.07;5.10;;;;;;;;;;6227254;28;20049;-85
2022/05/20 03:44:56;;;;;;;16.45;6.90;;;;;;;;;;6227484;28;20790;-85
2022/05/20 03:47:56;;;;;;;12.13;5.47;;;;;;;;;;6229702;28;20144;-84
2022/05/20 03:50:57;;;;;;;12.63;6.10;;;;;;;;;;6228528;28;20065;-84
2022/05/20 03:53:57;;;;;;;10.20;5.32;;;;;;;;;;6227880;28;20351;-84
2022/05/20 03:56:57;;;;;;;11.73;5.87;;;;;;;;;;6224574;28;20048;-84
2022/05/20 03:59:57;;;;;;;6.60;4.45;;;;;;;;;;6226985;28;20629;-85
2022/05/20 04:02:58;;;;;;;9.68;5.28;;;;;;;;;;6251297;28;20033;-84
2022/05/20 04:06:00;;;;;;;17.00;5.13;;;;;;;;;;6235946;28;20037;-84
2022/05/20 04:09:00;;;;;;;14.40;6.15;;;;;;;;;;6230677;28;20547;-84
2022/05/20 04:12:03;;;;;;;15.38;5.82;;;;;;;;;;6228786;28;20117;-84
2022/05/20 04:15:06;;;;;;;13.85;5.97;;;;;;;;;;6228504;28;20041;-84
2022/05/20 04:18:06;;;;;;;13.15;5.18;;;;;;;;;;6233188;28;20092;-84
2022/05/20 04:21:07;;;;;;;15.40;5.63;;;;;;;;;;6229295;28;20022;-85
2022/05/20 04:24:07;;;;;;;11.00;5.32;;;;;;;;;;6231127;28;20029;-85
2022/05/20 04:27:08;;;;;;;13.05;5.32;;;;;;;;;;6225820;28;20068;-84
2022/05/20 04:30:08;;;;;;;11.35;4.82;;;;;;;;;;6227181;28;20014;-84
2022/05/20 04:33:08;;;;;;;12.00;4.97;;;;;;;;;;6227656;28;20014;-85
2022/05/20 04:36:09;;;;;;;7.47;4.30;;;;;;;;;;6223230;28;20018;-85
2022/05/20 04:39:09;;;;;;;11.63;5.23;;;;;;;;;;6225188;28;20256;-85
2022/05/20 04:48:52;;;;;;;9.57;4.53;;;;;;;;;;6223320;28;20030;-84
2022/05/20 04:51:52;;;;;;;12.48;5.43;;;;;;;;;;6225727;28;20084;-85
2022/05/20 04:54:53;;;;;;;11.05;4.45;;;;;;;;;;6225231;28;20014;-84
2022/05/20 04:57:53;;;;;;;12.57;5.25;;;;;;;;;;6228479;28;20025;-83
2022/05/20 05:00:56;;;;;;;9.73;4.22;;;;;;;;;;6225473;28;20058;-83
2022/05/20 05:03:57;;;;;;;13.15;5.15;;;;;;;;;;6230973;28;20024;-83
2022/05/20 05:06:57;;;;;;;11.37;5.13;;;;;;;;;;6229269;28;20018;-84
2022/05/20 05:09:58;;;;;;;8.20;4.75;;;;;;;;;;6228333;28;20253;-83
2022/05/20 05:13:00;;;;;;;10.50;3.90;;;;;;;;;;6226219;28;20370;-84
2022/05/20 05:16:04;;;;;;;7.60;4.15;;;;;;;;;;6226617;28;20429;-83
2022/05/20 05:19:05;;;;;;;8.07;4.05;;;;;;;;;;6224030;28;20594;-83
2022/05/20 05:22:06;;;;;;;8.30;4.07;;;;;;;;;;6225347;28;20029;-84
2022/05/20 05:25:08;;;;;;;18.03;5.37;;;;;;;;;;6225356;28;20547;-84
2022/05/20 05:28:08;;;;;;;17.60;4.68;;;;;;;;;;6226279;28;20025;-84
2022/05/20 05:31:09;;;;;;;13.43;4.67;;;;;;;;;;6225095;28;20068;-83
2022/05/20 05:34:10;;;;;;;15.33;4.47;;;;;;;;;;6225108;28;20370;-84
2022/05/20 05:37:10;;;;;;;12.77;4.50;;;;;;;;;;6225048;28;20535;-83
2022/05/20 05:40:12;;;;;;;9.23;4.00;;;;;;;;;;6227364;28;20018;-83
2022/05/20 05:43:13;;;;;;;8.98;3.85;;;;;;;;;;6227682;28;20026;-84
2022/05/20 05:46:13;;;;;;;11.70;4.10;;;;;;;;;;6223739;28;20084;-84
2022/05/20 05:49:13;;;;;;;15.43;4.80;;;;;;;;;;6224757;28;20021;-84
2022/05/20 05:52:14;;;;;;;7.17;3.83;;;;;;;;;;6223782;28;20022;-84
2022/05/20 05:55:14;;;;;;;9.95;2.90;;;;;;;;;;6228916;28;20021;-83
2022/05/20 05:58:15;;;;;;;9.83;3.67;;;;;;;;;;6229390;28;20022;-84
2022/05/20 06:01:17;;;;;;;11.60;2.95;;;;;;;;;;6224109;28;20010;-84
2022/05/20 06:04:17;;;;;;;12.98;3.40;;;;;;;;;;6224002;28;20377;-85
2022/05/20 06:07:17;;;;;;;;;;;;;;;;;;6225219;28;20018;-84
2022/05/20 06:10:17;;;;;;;6.97;2.80;;;;;;;;;;6227778;28;20762;-84
2022/05/20 06:13:18;;;;;;;;;;;;;;;;;;6237333;28;20018;-84
2022/05/20 06:16:19;;;;;;;3.35;1.80;;;;;;;;;;6226090;28;19923;-84
2022/05/20 06:19:19;;;;;;;6.30;1.38;;;;;;;;;;6228707;28;20065;-84
2022/05/20 06:22:19;;;;;;;4.67;1.53;;;;;;;;;;6220879;28;20113;-84
2022/05/20 06:25:20;;;;;;;9.57;1.70;;;;;;;;;;6225259;28;20022;-84
2022/05/20 06:28:20;;;;;;;5.07;1.33;;;;;;;;;;6225307;28;20025;-84
2022/05/20 06:31:20;;;;;;;8.10;1.73;;;;;;;;;;6229366;28;20014;-84
2022/05/20 06:34:20;;;;;;;6.43;1.50;;;;;;;;;;6227839;28;20042;-84
2022/05/20 06:40:45;;;;;;;6.53;1.75;;;;;;;;;;6226012;28;20037;-84
2022/05/20 06:43:45;;;;;;;12.13;2.97;;;;;;;;;;6237138;28;20292;-84
2022/05/20 06:46:46;;;;;;;5.40;1.83;;;;;;;;;;6224101;28;20080;-84
2022/05/20 06:49:46;;;;;;;8.95;2.08;;;;;;;;;;6224293;28;20017;-84
2022/05/20 06:52:47;;;;;;;5.57;1.70;;;;;;;;;;6225291;28;20018;-84
2022/05/20 06:55:47;;;;;;;8.83;2.20;;;;;;;;;;6224175;28;20072;-84
2022/05/20 06:58:47;;;;;;;3.53;2.03;;;;;;;;;;6222877;28;20064;-84
2022/05/20 07:01:47;;;;;;;4.40;2.30;;;;;;;;;;6227689;28;20069;-84
2022/05/20 07:04:48;;;;;;;11.10;2.40;;;;;;;;;;6235507;28;20057;-84
2022/05/20 07:07:48;;;;;;;3.97;1.63;;;;;;;;;;6224517;28;20054;-84
2022/05/20 07:10:48;;;;;;;11.23;2.07;;;;;;;;;;6228971;28;20018;-84
2022/05/20 07:13:49;;;;;;;10.70;2.43;;;;;;;;;;6224779;28;20014;-84
2022/05/20 07:16:50;;;;;;;10.98;2.03;;;;;;;;;;6219284;28;20099;-84
2022/05/20 07:19:51;;;;;;;8.57;1.90;;;;;;;;;;6211433;28;20466;-84
2022/05/20 07:22:51;;;;;;;3.17;1.73;;;;;;;;;;6222787;28;20029;-84
2022/05/20 07:25:51;;;;;;;4.50;1.50;;;;;;;;;;6223458;28;20285;-85
2022/05/20 07:28:52;;;;;;;9.87;3.13;;;;;;;;;;6222427;28;20110;-84
2022/05/20 07:31:52;;;;;;;5.93;1.93;;;;;;;;;;6222397;28;20474;-84
2022/05/20 07:34:52;;;;;;;4.87;1.67;;;;;;;;;;6219080;28;20018;-84
2022/05/20 07:37:52;;;;;;;6.30;1.97;;;;;;;;;;6229703;28;20033;-83
2022/05/20 07:40:55;;;;;;;6.00;2.10;;;;;;;;;;6239088;28;20025;-83
2022/05/20 07:43:55;;;;;;;4.63;2.00;;;;;;;;;;6212075;28;20018;-84
2022/05/20 07:46:55;;;;;;;9.97;2.43;;;;;;;;;;6227481;28;20044;-84
2022/05/20 07:49:55;;;;;;;7.10;2.17;;;;;;;;;;6210542;28;20018;-84
2022/05/20 07:56:32;;;;;;;9.48;2.50;;;;;;;;;;6221720;28;20204;-84
2022/05/20 07:59:47;;;;;;;6.27;2.00;;;;;;;;;;6231276;28;20473;-84
2022/05/20 08:02:48;;;;;;;4.10;1.98;;;;;;;;;;6223684;28;20528;-84
2022/05/20 08:05:48;;;;;;;10.52;2.60;;;;;;;;;;6218415;28;20022;-85
2022/05/20 08:08:48;;;;;;;6.90;2.00;;;;;;;;;;6219164;28;20033;-84
2022/05/20 08:11:48;;;;;;;7.50;2.57;;;;;;;;;;6226264;28;20033;-84
2022/05/20 08:14:49;;;;;;;10.83;2.37;;;;;;;;;;6225177;28;20096;-84
2022/05/20 08:17:49;;;;;;;5.00;2.03;;;;;;;;;;6226751;28;20100;-84
2022/05/20 08:20:49;;;;;;;5.93;2.37;;;;;;;;;;6226131;28;20551;-85
2022/05/20 08:23:49;;;;;;;7.77;3.37;;;;;;;;;;6228024;28;20616;-84
2022/05/20 08:26:50;;;;;;;4.17;2.17;;;;;;;;;;6225887;28;20108;-84
2022/05/20 08:29:50;;;;;;;4.33;1.97;;;;;;;;;;6229051;28;20020;-84
2022/05/20 08:32:50;;;;;;;4.30;1.92;;;;;;;;;;6226205;28;20046;-84
2022/05/20 08:35:51;;;;;;;4.57;2.13;;;;;;;;;;6225693;28;20037;-84
2022/05/20 08:38:51;;;;;;;7.20;2.60;;;;;;;;;;6226445;28;20018;-84
2022/05/20 08:41:52;;;;;;;;;;;;;;;;;;6228112;28;20048;-84
2022/05/20 08:44:52;;;;;;;4.57;2.37;;;;;;;;;;6227439;28;19963;-84
2022/05/20 08:47:52;;;;;;;;;;;;;;;;;;6229203;28;20029;-84
2022/05/20 08:50:54;;;;;;;8.07;2.55;;;;;;;;;;6228704;28;19913;-85
2022/05/20 08:53:54;;;;;;;10.98;3.90;;;;;;;;;;6239895;28;20092;-84
2022/05/20 08:56:54;;;;;;;;;;;;;;;;;;6226619;28;20026;-84
2022/05/20 08:59:55;;;;;;;10.32;3.22;;;;;;;;;;6228165;28;19909;-84
2022/05/20 09:02:55;;;;;;;;;;;;;;;;;;6224247;28;20033;-84
2022/05/20 09:06:06;;;;;;;6.07;3.00;;;;;;;;;;6226171;28;20415;-84
2022/05/20 09:09:11;;;;;;;7.75;2.47;;;;;;;;;;6242211;28;20022;-83
2022/05/20 09:12:27;;;;;;;9.80;2.83;;;;;;;;;;6224628;28;20086;-83
2022/05/20 09:15:46;;;;;;;4.63;2.00;;;;;;;;;;6225034;28;20438;-84
2022/05/20 09:18:48;;;;;;;5.78;2.00;;;;;;;;;;6224825;28;20021;-84
2022/05/20 09:21:59;;;;;;;4.82;1.92;;;;;;;;;;6229301;28;20022;-83
2022/05/20 09:25:01;;;;;;;;;;;;;;;;;;6221924;28;20061;-84
2022/05/20 09:32:31;;;;;;;8.63;2.08;;;;;;;;;;6227888;28;20014;-84
2022/05/20 09:35:30;;;;;;;6.57;2.05;;;;;;;;;;6220302;28;20030;-84
2022/05/20 09:38:35;;;;;;;3.55;2.08;;;;;;;;;;6222677;28;20032;-84
2022/05/20 09:41:43;;;;;;;3.75;2.00;;;;;;;;;;6225263;28;20556;-83
2022/05/20 09:44:44;;;;;;;5.35;2.10;;;;;;;;;;6225096;28;20095;-83
2022/05/20 09:47:50;;;;;;;5.80;1.98;;;;;;;;;;6226621;28;20010;-83
2022/05/20 09:51:10;;;;;;;6.68;2.58;;;;;;;;;;6226184;28;20114;-83
2022/05/20 09:54:29;;;;;;;6.68;2.20;;;;;;;;;;6225744;28;20026;-84
2022/05/20 09:57:36;;;;;;;3.00;1.83;;;;;;;;;;6224843;28;20026;-84
2022/05/20 10:00:37;;;;;;;4.43;2.00;;;;;;;;;;6225998;28;20029;-84
2022/05/20 10:03:43;;;;;;;5.72;2.63;;;;;;;;;;6225926;28;20022;-84
2022/05/20 10:06:46;;;;;;;6.10;1.55;;;;;;;;;;6226112;28;20044;-84
2022/05/20 10:10:06;;;;;;;4.30;2.15;;;;;;;;;;6224810;28;20026;-84
2022/05/20 10:13:09;;;;;;;8.90;2.37;;;;;;;;;;6224792;28;20501;-84
2022/05/20 10:16:15;;;;;;;4.65;2.00;;;;;;;;;;6225303;28;20502;-84
2022/05/20 10:19:34;;;;;;;5.63;2.00;;;;;;;;;;6225606;28;20157;-84
2022/05/20 10:22:48;;;;;;;7.57;2.22;;;;;;;;;;6229681;28;20026;-84
2022/05/20 10:25:48;;;;;;;6.28;2.35;;;;;;;;;;6219469;28;20052;-84
2022/05/20 10:32:34;;;;;;;5.72;1.98;;;;;;;;;;6226057;28;20034;-84
2022/05/20 10:35:45;;;;;;;7.07;2.17;;;;;;;;;;6234223;28;20023;-84
2022/05/20 10:38:51;;;;;;;4.10;2.15;;;;;;;;;;6232457;28;20104;-84
2022/05/20 10:41:54;;;;;;;9.82;2.55;;;;;;;;;;6232455;28;20021;-84
2022/05/20 10:48:57;;;;;;;3.63;1.77;;;;;;;;;;6231456;28;20030;-84
2022/05/20 10:52:02;;;;;;;4.13;2.38;;;;;;;;;;6229230;28;20014;-84
2022/05/20 10:55:05;;;;;;;6.60;2.72;;;;;;;;;;6228581;28;20029;-84
2022/05/20 10:58:10;;;;;;;6.50;2.28;;;;;;;;;;6228624;28;20073;-84
2022/05/20 11:01:13;;;;;;;3.25;1.58;;;;;;;;;;6232056;28;20029;-84
2022/05/20 11:04:13;;;;;;;5.85;1.92;;;;;;;;;;6225868;28;20032;-84
2022/05/20 11:07:20;;;;;;;9.17;2.50;;;;;;;;;;6228761;28;20021;-84
2022/05/20 11:10:20;;;;;;;8.85;1.88;;;;;;;;;;6241790;28;20021;-84
2022/05/20 11:13:26;;;;;;;8.03;2.10;;;;;;;;;;6225656;28;20064;-84
2022/05/20 11:16:38;;;;;;;9.50;1.85;;;;;;;;;;6225113;28;20054;-84
2022/05/20 11:19:45;;;;;;;5.38;1.98;;;;;;;;;;6224232;28;20022;-84
2022/05/20 11:22:48;;;;;;;7.63;1.90;;;;;;;;;;6225206;28;20040;-84
2022/05/20 11:26:07;;;;;;;2.85;1.50;;;;;;;;;;6240430;28;20025;-84
2022/05/20 11:29:11;;;;;;;5.80;1.88;;;;;;;;;;6245029;28;20044;-84
2022/05/20 11:32:16;;;;;;;2.53;1.70;;;;;;;;;;6230326;28;20109;-84
2022/05/20 11:35:39;;;;;;;3.08;1.65;;;;;;;;;;6225638;28;20060;-84
2022/05/20 11:38:40;;;;;;;4.88;1.73;;;;;;;;;;6220817;28;20040;-84
2022/05/20 11:41:44;;;;;;;6.53;1.88;;;;;;;;;;6223933;28;20022;-84
2022/05/20 11:44:44;;;;;;;1.55;1.20;;;;;;;;;;6219483;28;20080;-83
2022/05/20 11:48:04;;;;;;;6.03;1.83;;;;;;;;;;6226412;28;20839;-84
2022/05/20 11:51:07;;;;;;;5.10;2.40;;;;;;;;;;6229222;28;20033;-84
2022/05/20 11:54:19;;;;;;;2.85;1.75;;;;;;;;;;6231746;28;20022;-84
2022/05/20 11:57:21;;;;;;;3.40;2.10;;;;;;;;;;6234203;28;20053;-84
2022/05/20 12:00:22;;;;;;;2.75;1.38;;;;;;;;;;6230248;28;20052;-84
2022/05/20 12:03:22;;;;;;;;;;;;;;;;;;6233603;28;20014;-84
2022/05/20 12:06:24;;;;;;;4.10;1.80;;;;;;;;;;6232114;28;19914;-84
2022/05/20 12:09:27;;;;;;;6.20;1.83;;;;;;;;;;6229810;28;20038;-84
2022/05/20 12:12:29;;;;;;;3.72;1.88;;;;;;;;;;6245045;28;20448;-84
2022/05/20 12:15:29;;;;;;;7.75;2.10;;;;;;;;;;6233499;28;20033;-84
2022/05/20 12:25:28;;;;;;;1.43;1.30;;;;;;;;;;6224281;28;20026;-84
2022/05/20 12:28:30;;;;;;;4.25;2.28;;;;;;;;;;6227829;28;20386;-84
2022/05/20 12:31:38;;;;;;;5.15;1.73;;;;;;;;;;6228101;28;20389;-84
2022/05/20 12:34:40;;;;;;;5.93;1.95;;;;;;;;;;6228476;28;20036;-84
2022/05/20 12:37:40;;;;;;;4.35;2.03;;;;;;;;;;6234861;28;20114;-83
2022/05/20 12:40:40;;;;;;;2.90;2.40;;;;;;;;;;6227512;28;20026;-83
2022/05/20 12:43:42;;;;;;;3.57;1.43;;;;;;;;;;6228615;28;20284;-83
2022/05/20 12:46:58;;;;;;;8.68;1.90;;;;;;;;;;6229051;28;20009;-84
2022/05/20 12:50:00;;;;;;;3.22;1.83;;;;;;;;;;6233444;28;20021;-84
2022/05/20 12:53:02;;;;;;;8.32;2.28;;;;;;;;;;6227923;28;20105;-84
2022/05/20 12:56:03;;;;;;;6.78;2.90;;;;;;;;;;6227546;28;20033;-83
2022/05/20 12:59:14;;;;;;;4.13;2.13;;;;;;;;;;6220825;28;20014;-84
2022/05/20 13:02:16;;;;;;;8.88;2.05;;;;;;;;;;6223855;28;20030;-84
2022/05/20 13:05:23;;;;;;;7.25;2.20;;;;;;;;;;6225174;28;20079;-84
2022/05/20 13:08:28;;;;;;;7.95;2.17;;;;;;;;;;6248491;28;20037;-84
2022/05/20 13:11:39;;;;;;;3.17;2.05;;;;;;;;;;6223525;28;20045;-83
2022/05/20 13:14:39;;;;;;;3.40;1.83;;;;;;;;;;6240701;28;20029;-84
2022/05/20 13:17:40;;;;;;;3.73;1.70;;;;;;;;;;6224280;28;20077;-83
2022/05/20 13:20:41;;;;;;;5.23;2.03;;;;;;;;;;6228003;28;20029;-84
2022/05/20 13:23:42;;;;;;;5.45;2.15;;;;;;;;;;6227572;28;20080;-83
2022/05/20 13:26:44;;;;;;;4.65;1.83;;;;;;;;;;6233438;28;20120;-84
2022/05/20 13:29:45;;;;;;;5.07;2.58;;;;;;;;;;6238386;28;20022;-84
2022/05/20 13:32:46;;;;;;;9.05;2.20;;;;;;;;;;6224070;28;20029;-84
2022/05/20 13:35:51;;;;;;;5.80;2.00;;;;;;;;;;6225178;28;20036;-85
2022/05/20 13:38:58;;;;;;;5.40;2.83;;;;;;;;;;6224462;28;20030;-84
2022/05/20 13:41:58;;;;;;;2.53;1.95;;;;;;;;;;6224599;28;20057;-84
2022/05/20 13:45:03;;;;;;;4.68;2.20;;;;;;;;;;6226186;28;20026;-84
2022/05/20 13:51:27;;;;;;;2.87;2.57;;;;;;;;;;6231170;28;20029;-84
2022/05/20 13:54:40;;;;;;;5.30;1.90;;;;;;;;;;6228599;28;20030;-84
2022/05/20 13:57:42;;;;;;;3.35;2.22;;;;;;;;;;6237319;28;20037;-84
2022/05/20 14:00:43;;;;;;;5.65;2.08;;;;;;;;;;6225491;28;20603;-84
2022/05/20 14:03:45;;;;;;;2.15;1.88;;;;;;;;;;6226233;28;20133;-84
2022/05/20 14:06:45;;;;;;;4.72;1.73;;;;;;;;;;6226333;28;20167;-84
2022/05/20 14:09:51;;;;;;;4.10;2.30;;;;;;;;;;6229947;28;20378;-84
2022/05/20 14:13:00;;;;;;;3.42;1.90;;;;;;;;;;6223264;28;20259;-84
2022/05/20 14:16:00;;;;;;;5.28;2.45;;;;;;;;;;6221353;28;20053;-83
2022/05/20 14:19:04;;;;;;;7.85;2.40;;;;;;;;;;6220596;28;20076;-83
2022/05/20 14:22:07;;;;;;;4.55;2.45;;;;;;;;;;6219967;28;20044;-83
2022/05/20 14:25:22;;;;;;;4.97;2.00;;;;;;;;;;6221994;28;20032;-84
2022/05/20 14:28:34;;;;;;;4.13;2.10;;;;;;;;;;6219359;28;20109;-83
2022/05/20 14:31:39;;;;;;;7.35;2.28;;;;;;;;;;6221803;28;20029;-84
2022/05/20 14:34:44;;;;;;;4.07;2.20;;;;;;;;;;6218360;28;20050;-84
2022/05/20 14:37:44;;;;;;;8.35;2.85;;;;;;;;;;6235792;28;20022;-84
2022/05/20 14:40:44;;;;;;;;;;;;;;;;;;6221077;28;20029;-84
2022/05/20 14:43:55;;;;;;;3.47;1.70;;;;;;;;;;6217127;28;19909;-84
2022/05/20 14:47:15;;;;;;;4.82;2.30;;;;;;;;;;6225950;28;20397;-84
2022/05/20 14:50:19;;;;;;;8.85;3.80;;;;;;;;;;6234272;28;20056;-84
2022/05/20 14:53:19;;;;;;;6.63;2.90;;;;;;;;;;6222333;28;20022;-84
2022/05/20 14:56:19;;;;;;;;;;;;;;;;;;6222309;28;20029;-84
2022/05/20 14:59:48;;;;;;;4.47;2.20;;;;;;;;;;6223282;28;20372;-84
2022/05/20 15:02:48;;;;;;;5.70;2.22;;;;;;;;;;6188340;28;20029;-84
2022/05/20 15:05:48;;;;;;;;;;;;;;;;;;6225285;28;20923;-84
2022/05/20 15:08:49;;;;;;;9.52;2.28;;;;;;;;;;6240395;28;20003;-83
2022/05/20 15:11:49;;;;;;;;;;;;;;;;;;6228198;28;20101;-84
2022/05/20 15:14:50;;;;;;;13.52;3.70;;;;;;;;;;6249687;28;19905;-84
2022/05/20 15:17:56;;;;;;;11.80;4.40;;;;;;;;;;6221004;28;20120;-84
2022/05/20 15:20:58;;;;;;;3.60;1.75;;;;;;;;;;6222325;28;20072;-84
2022/05/20 15:24:10;;;;;;;6.28;2.33;;;;;;;;;;6226618;28;20030;-84
2022/05/20 15:27:15;;;;;;;5.18;2.08;;;;;;;;;;6225152;28;20106;-84
2022/05/20 15:30:16;;;;;;;5.50;2.75;;;;;;;;;;6226625;28;20359;-84
2022/05/20 15:36:37;;;;;;;11.85;4.53;;;;;;;;;;6228463;28;20277;-84
2022/05/20 15:39:39;;;;;;;3.97;2.35;;;;;;;;;;6228976;28;20049;-84
2022/05/20 15:42:40;;;;;;;2.70;2.00;;;;;;;;;;6223687;28;20022;-84
2022/05/20 15:45:41;;;;;;;9.38;2.63;;;;;;;;;;6228956;28;20026;-84
2022/05/20 15:48:42;;;;;;;12.55;4.38;;;;;;;;;;6228118;28;20075;-84
2022/05/20 15:51:43;;;;;;;8.73;3.07;;;;;;;;;;6236876;28;20093;-84
2022/05/20 15:54:48;;;;;;;10.65;2.65;;;;;;;;;;6225111;28;20030;-84
2022/05/20 15:57:49;;;;;;;6.65;2.13;;;;;;;;;;6226486;28;20037;-84
2022/05/20 16:00:49;;;;;;;4.63;1.90;;;;;;;;;;6227505;28;20022;-84
2022/05/20 16:03:50;;;;;;;5.30;3.40;;;;;;;;;;6227912;28;20022;-84
2022/05/20 16:06:50;;;;;;;8.65;2.60;;;;;;;;;;6236900;28;20104;-84
2022/05/20 16:09:50;;;;;;;7.23;2.60;;;;;;;;;;6221253;28;20018;-84
2022/05/20 16:12:51;;;;;;;4.63;1.90;;;;;;;;;;6228999;28;20260;-84
2022/05/20 16:15:51;;;;;;;6.93;2.43;;;;;;;;;;6228493;28;20050;-83
2022/05/20 16:18:52;;;;;;;5.72;1.80;;;;;;;;;;6242470;28;20619;-83
2022/05/20 16:21:53;;;;;;;14.07;3.73;;;;;;;;;;6228536;28;20033;-84
2022/05/20 16:24:53;;;;;;;3.63;2.28;;;;;;;;;;6227884;28;20025;-83
2022/05/20 16:27:54;;;;;;;3.77;1.60;;;;;;;;;;6224555;28;20080;-84
2022/05/20 16:30:54;;;;;;;3.15;1.77;;;;;;;;;;6225028;28;20010;-84
2022/05/20 16:33:55;;;;;;;20.53;5.03;;;;;;;;;;6224759;28;20076;-83
2022/05/20 16:36:55;;;;;;;4.43;2.03;;;;;;;;;;6223347;28;20256;-84
2022/05/20 16:39:55;;;;;;;3.40;2.20;;;;;;;;;;6223108;28;20045;-84
2022/05/20 16:42:56;;;;;;;4.20;1.93;;;;;;;;;;6225550;28;20076;-84
2022/05/20 16:45:56;;;;;;;8.30;1.93;;;;;;;;;;6223340;28;20017;-84
2022/05/20 16:49:01;;;;;;;8.68;2.70;;;;;;;;;;6224541;28;20034;-84
2022/05/20 16:52:03;;;;;;;6.95;2.17;;;;;;;;;;6236766;28;20370;-84
2022/05/20 16:55:04;;;;;;;8.60;2.72;;;;;;;;;;6222747;28;20029;-83
2022/05/20 17:04:43;;;;;;;7.50;2.38;;;;;;;;;;6242306;28;20033;-84
2022/05/20 17:07:43;;;;;;;4.85;1.90;;;;;;;;;;6232747;28;20485;-85
2022/05/20 17:10:44;;;;;;;7.17;2.20;;;;;;;;;;6224517;28;20022;-84
2022/05/20 17:13:44;;;;;;;8.33;4.00;;;;;;;;;;6231407;28;20033;-84
2022/05/20 17:16:46;;;;;;;6.63;3.00;;;;;;;;;;6225272;28;20075;-84
2022/05/20 17:19:46;;;;;;;5.47;2.40;;;;;;;;;;6222298;28;20499;-84
2022/05/20 17:26:07;;;;;;;6.43;2.50;;;;;;;;;;6224315;28;20072;-84
2022/05/20 17:29:07;;;;;;;5.43;2.72;;;;;;;;;;6222120;28;20108;-84
2022/05/20 17:32:08;;;;;;;11.20;4.83;;;;;;;;;;6224779;28;20392;-84
2022/05/20 17:35:08;;;;;;;6.82;4.13;;;;;;;;;;6223457;28;20021;-84
2022/05/20 17:38:08;;;;;;;9.67;4.67;;;;;;;;;;6225470;28;20017;-84
2022/05/20 17:41:09;;;;;;;7.60;2.80;;;;;;;;;;6224225;28;20025;-85
2022/05/20 17:44:09;;;;;;;6.67;2.63;;;;;;;;;;6226659;28;20018;-84
2022/05/20 17:47:10;;;;;;;8.73;3.33;;;;;;;;;;6232858;28;20022;-84
2022/05/20 17:50:10;;;;;;;10.88;2.60;;;;;;;;;;6226488;28;20017;-85
2022/05/20 17:53:10;;;;;;;5.10;2.90;;;;;;;;;;6223887;28;20471;-84
2022/05/20 17:56:11;;;;;;;10.30;3.17;;;;;;;;;;6227067;28;20021;-84
2022/05/20 17:59:11;;;;;;;6.27;3.07;;;;;;;;;;6227997;28;20014;-85
2022/05/20 18:02:13;;;;;;;10.07;2.97;;;;;;;;;;6228209;28;20022;-85
2022/05/20 18:05:15;;;;;;;9.77;3.15;;;;;;;;;;6235375;28;20026;-84
2022/05/20 18:08:15;;;;;;;;;;;;;;;;;;6242154;28;20035;-84
2022/05/20 18:11:15;;;;;;;10.00;3.30;;;;;;;;;;6233741;28;19913;-84
2022/05/20 18:14:15;;;;;;;5.73;2.50;;;;;;;;;;6240510;28;20025;-85
2022/05/20 18:17:21;;;;;;;6.10;2.87;;;;;;;;;;6242697;28;20046;-84
2022/05/20 18:20:21;;;;;;;5.57;3.03;;;;;;;;;;6228390;28;20351;-84
2022/05/20 18:23:22;;;;;;;8.17;3.53;;;;;;;;;;6227665;28;20010;-85
2022/05/20 18:26:22;;;;;;;9.97;3.30;;;;;;;;;;6232108;28;20459;-84
2022/05/20 18:29:23;;;;;;;5.93;3.33;;;;;;;;;;6228867;28;20089;-84
2022/05/20 18:32:23;;;;;;;;;;;;;;;;;;6229017;28;20026;-84
2022/05/20 18:42:01;;;;;;;8.35;3.33;;;;;;;;;;6231865;28;20022;-84
2022/05/20 18:45:03;;;;;;;5.77;3.33;;;;;;;;;;6232238;28;20024;-84
2022/05/20 18:48:03;;;;;;;;;;;;;;;;;;6230334;28;20014;-85
2022/05/20 18:51:03;;;;;;;8.93;4.40;;;;;;;;;;6228946;28;20439;-85
2022/05/20 18:54:03;;;;;;;9.57;6.00;;;;;;;;;;6230496;28;20057;-84
2022/05/20 18:57:04;;;;;;;9.30;4.97;;;;;;;;;;6233806;28;20025;-85
2022/05/20 19:00:06;;;;;;;10.23;5.32;;;;;;;;;;6235505;28;20014;-84
2022/05/20 19:06:25;;;;;;;6.95;3.58;;;;;;;;;;6225685;28;20342;-84
2022/05/20 19:09:25;;;;;;;8.13;3.80;;;;;;;;;;6227590;28;20020;-85
2022/05/20 19:12:26;;;;;;;11.97;5.63;;;;;;;;;;6230390;28;20089;-84
2022/05/20 19:15:26;;;;;;;13.93;7.50;;;;;;;;;;6226850;28;20117;-84
2022/05/20 19:18:26;;;;;;;9.63;4.90;;;;;;;;;;6227080;28;20430;-84
2022/05/20 19:21:26;;;;;;;11.40;5.47;;;;;;;;;;6225995;28;20499;-84